sensor_id;sensor_type;location;lat;lon;timestamp;P1;durP1;ratioP1;P2;durP2;ratioP2
35977;SDS011;22056;0.000;0.000;2023-05-20T00:02:22;1.15;;;0.60;;
35977;SDS011;22056;0.000;0.000;2023-05-20T00:04:48;0.50;;;0.40;;
35977;SDS011;22056;0.000;0.000;2023-05-20T00:07:14;0.82;;;0.60;;
35977;SDS011;22056;0.000;0.000;2023-05-20T00:09:40;1.25;;;0.70;;
35977;SDS011;22056;0.000;0.000;2023-05-20T00:12:06;1.30;;;0.70;;
35977;SDS011;22056;0.000;0.000;2023-05-20T00:14:32;0.98;;;0.70;;
35977;SDS011;22056;0.000;0.000;2023-05-20T00:16:59;1.00;;;0.70;;
35977;SDS011;22056;0.000;0.000;2023-05-20T00:19:25;1.83;;;0.60;;
35977;SDS011;22056;0.000;0.000;2023-05-20T00:21:51;0.90;;;0.63;;
35977;SDS011;22056;0.000;0.000;2023-05-20T00:24:17;1.30;;;0.70;;
35977;SDS011;22056;0.000;0.000;2023-05-20T00:26:43;2.40;;;0.90;;
35977;SDS011;22056;0.000;0.000;2023-05-20T00:29:09;2.08;;;0.82;;
35977;SDS011;22056;0.000;0.000;2023-05-20T00:31:35;0.70;;;0.60;;
35977;SDS011;22056;0.000;0.000;2023-05-20T00:34:01;0.77;;;0.52;;
35977;SDS011;22056;0.000;0.000;2023-05-20T00:36:27;0.90;;;0.60;;
35977;SDS011;22056;0.000;0.000;2023-05-20T00:38:54;1.60;;;0.70;;
35977;SDS011;22056;0.000;0.000;2023-05-20T00:41:20;2.13;;;0.82;;
35977;SDS011;22056;0.000;0.000;2023-05-20T00:43:46;1.67;;;1.13;;
35977;SDS011;22056;0.000;0.000;2023-05-20T00:46:12;0.60;;;0.60;;
35977;SDS011;22056;0.000;0.000;2023-05-20T00:48:39;0.88;;;0.50;;
35977;SDS011;22056;0.000;0.000;2023-05-20T00:51:06;2.03;;;0.50;;
35977;SDS011;22056;0.000;0.000;2023-05-20T00:53:32;0.95;;;0.60;;
35977;SDS011;22056;0.000;0.000;2023-05-20T00:55:59;1.02;;;0.50;;
35977;SDS011;22056;0.000;0.000;2023-05-20T00:58:26;0.98;;;0.60;;
35977;SDS011;22056;0.000;0.000;2023-05-20T01:00:52;1.35;;;0.70;;
35977;SDS011;22056;0.000;0.000;2023-05-20T01:03:18;1.45;;;0.60;;
35977;SDS011;22056;0.000;0.000;2023-05-20T01:05:45;0.80;;;0.55;;
35977;SDS011;22056;0.000;0.000;2023-05-20T01:08:11;1.30;;;0.85;;
35977;SDS011;22056;0.000;0.000;2023-05-20T01:10:38;0.60;;;0.60;;
35977;SDS011;22056;0.000;0.000;2023-05-20T01:13:07;0.65;;;0.50;;
35977;SDS011;22056;0.000;0.000;2023-05-20T01:15:35;0.50;;;0.50;;
35977;SDS011;22056;0.000;0.000;2023-05-20T01:18:02;1.85;;;0.45;;
35977;SDS011;22056;0.000;0.000;2023-05-20T01:20:31;1.23;;;0.60;;
35977;SDS011;22056;0.000;0.000;2023-05-20T01:22:58;0.80;;;0.50;;
35977;SDS011;22056;0.000;0.000;2023-05-20T01:25:24;1.58;;;0.60;;
35977;SDS011;22056;0.000;0.000;2023-05-20T01:27:50;1.00;;;0.50;;
35977;SDS011;22056;0.000;0.000;2023-05-20T01:30:17;1.08;;;0.73;;
35977;SDS011;22056;0.000;0.000;2023-05-20T01:32:47;0.60;;;0.57;;
35977;SDS011;22056;0.000;0.000;2023-05-20T01:35:15;0.93;;;0.47;;
35977;SDS011;22056;0.000;0.000;2023-05-20T01:37:41;2.28;;;0.60;;
35977;SDS011;22056;0.000;0.000;2023-05-20T01:40:09;0.98;;;0.60;;
35977;SDS011;22056;0.000;0.000;2023-05-20T01:42:36;0.68;;;0.60;;
35977;SDS011;22056;0.000;0.000;2023-05-20T01:45:03;0.77;;;0.50;;
35977;SDS011;22056;0.000;0.000;2023-05-20T01:47:30;0.52;;;0.50;;
35977;SDS011;22056;0.000;0.000;2023-05-20T01:49:56;0.60;;;0.57;;
35977;SDS011;22056;0.000;0.000;2023-05-20T01:52:22;1.15;;;0.50;;
35977;SDS011;22056;0.000;0.000;2023-05-20T01:54:48;1.13;;;0.70;;
35977;SDS011;22056;0.000;0.000;2023-05-20T01:57:24;0.50;;;0.50;;
35977;SDS011;22056;0.000;0.000;2023-05-20T01:59:50;0.75;;;0.50;;
35977;SDS011;22056;0.000;0.000;2023-05-20T02:02:16;0.73;;;0.43;;
35977;SDS011;22056;0.000;0.000;2023-05-20T02:04:44;0.85;;;0.70;;
35977;SDS011;22056;0.000;0.000;2023-05-20T02:07:13;0.98;;;0.68;;
35977;SDS011;22056;0.000;0.000;2023-05-20T02:09:39;0.50;;;0.40;;
35977;SDS011;22056;0.000;0.000;2023-05-20T02:12:06;1.75;;;0.50;;
35977;SDS011;22056;0.000;0.000;2023-05-20T02:14:33;1.15;;;0.50;;
35977;SDS011;22056;0.000;0.000;2023-05-20T02:16:59;1.05;;;0.70;;
35977;SDS011;22056;0.000;0.000;2023-05-20T02:19:25;0.88;;;0.50;;
35977;SDS011;22056;0.000;0.000;2023-05-20T02:21:51;0.52;;;0.40;;
35977;SDS011;22056;0.000;0.000;2023-05-20T02:24:17;0.95;;;0.70;;
35977;SDS011;22056;0.000;0.000;2023-05-20T02:26:45;0.65;;;0.43;;
35977;SDS011;22056;0.000;0.000;2023-05-20T02:29:13;0.73;;;0.68;;
35977;SDS011;22056;0.000;0.000;2023-05-20T02:31:39;0.55;;;0.50;;
35977;SDS011;22056;0.000;0.000;2023-05-20T02:34:06;0.45;;;0.45;;
35977;SDS011;22056;0.000;0.000;2023-05-20T02:36:32;0.60;;;0.50;;
35977;SDS011;22056;0.000;0.000;2023-05-20T02:38:58;0.50;;;0.50;;
35977;SDS011;22056;0.000;0.000;2023-05-20T02:41:25;0.60;;;0.43;;
35977;SDS011;22056;0.000;0.000;2023-05-20T02:43:51;0.65;;;0.47;;
35977;SDS011;22056;0.000;0.000;2023-05-20T02:46:18;1.75;;;0.85;;
35977;SDS011;22056;0.000;0.000;2023-05-20T02:48:44;0.45;;;0.40;;
35977;SDS011;22056;0.000;0.000;2023-05-20T02:51:10;0.80;;;0.50;;
35977;SDS011;22056;0.000;0.000;2023-05-20T02:53:36;0.60;;;0.55;;
35977;SDS011;22056;0.000;0.000;2023-05-20T02:56:03;0.47;;;0.47;;
35977;SDS011;22056;0.000;0.000;2023-05-20T02:58:29;0.57;;;0.40;;
35977;SDS011;22056;0.000;0.000;2023-05-20T03:00:55;0.45;;;0.38;;
35977;SDS011;22056;0.000;0.000;2023-05-20T03:03:22;0.40;;;0.40;;
35977;SDS011;22056;0.000;0.000;2023-05-20T03:05:48;1.02;;;0.50;;
35977;SDS011;22056;0.000;0.000;2023-05-20T03:08:15;0.55;;;0.43;;
35977;SDS011;22056;0.000;0.000;2023-05-20T03:10:41;0.90;;;0.60;;
35977;SDS011;22056;0.000;0.000;2023-05-20T03:13:07;0.50;;;0.50;;
35977;SDS011;22056;0.000;0.000;2023-05-20T03:15:35;0.85;;;0.57;;
35977;SDS011;22056;0.000;0.000;2023-05-20T03:18:02;0.60;;;0.60;;
35977;SDS011;22056;0.000;0.000;2023-05-20T03:20:28;0.93;;;0.57;;
35977;SDS011;22056;0.000;0.000;2023-05-20T03:22:56;0.60;;;0.57;;
35977;SDS011;22056;0.000;0.000;2023-05-20T03:25:23;0.90;;;0.60;;
35977;SDS011;22056;0.000;0.000;2023-05-20T03:27:50;1.23;;;0.50;;
35977;SDS011;22056;0.000;0.000;2023-05-20T03:30:16;0.85;;;0.57;;
35977;SDS011;22056;0.000;0.000;2023-05-20T03:32:42;0.50;;;0.50;;
35977;SDS011;22056;0.000;0.000;2023-05-20T03:35:09;0.40;;;0.40;;
35977;SDS011;22056;0.000;0.000;2023-05-20T03:37:35;0.50;;;0.40;;
35977;SDS011;22056;0.000;0.000;2023-05-20T03:40:01;0.60;;;0.50;;
35977;SDS011;22056;0.000;0.000;2023-05-20T03:42:33;0.47;;;0.43;;
35977;SDS011;22056;0.000;0.000;2023-05-20T03:44:59;0.68;;;0.50;;
35977;SDS011;22056;0.000;0.000;2023-05-20T03:47:25;1.10;;;0.60;;
35977;SDS011;22056;0.000;0.000;2023-05-20T03:49:52;0.45;;;0.40;;
35977;SDS011;22056;0.000;0.000;2023-05-20T03:52:18;0.40;;;0.40;;
35977;SDS011;22056;0.000;0.000;2023-05-20T03:54:44;0.50;;;0.50;;
35977;SDS011;22056;0.000;0.000;2023-05-20T03:57:10;0.50;;;0.50;;
35977;SDS011;22056;0.000;0.000;2023-05-20T03:59:36;0.43;;;0.40;;
35977;SDS011;22056;0.000;0.000;2023-05-20T04:02:03;0.47;;;0.47;;
35977;SDS011;22056;0.000;0.000;2023-05-20T04:04:29;0.60;;;0.40;;
35977;SDS011;22056;0.000;0.000;2023-05-20T04:06:56;0.65;;;0.40;;
35977;SDS011;22056;0.000;0.000;2023-05-20T04:09:22;0.60;;;0.60;;
35977;SDS011;22056;0.000;0.000;2023-05-20T04:11:48;0.63;;;0.50;;
35977;SDS011;22056;0.000;0.000;2023-05-20T04:14:14;0.40;;;0.40;;
35977;SDS011;22056;0.000;0.000;2023-05-20T04:16:40;0.60;;;0.60;;
35977;SDS011;22056;0.000;0.000;2023-05-20T04:19:07;0.68;;;0.40;;
35977;SDS011;22056;0.000;0.000;2023-05-20T04:21:33;0.52;;;0.43;;
35977;SDS011;22056;0.000;0.000;2023-05-20T04:23:59;1.60;;;0.52;;
35977;SDS011;22056;0.000;0.000;2023-05-20T04:26:25;0.50;;;0.40;;
35977;SDS011;22056;0.000;0.000;2023-05-20T04:28:53;0.77;;;0.55;;
35977;SDS011;22056;0.000;0.000;2023-05-20T04:31:19;0.57;;;0.57;;
35977;SDS011;22056;0.000;0.000;2023-05-20T04:33:53;0.70;;;0.47;;
35977;SDS011;22056;0.000;0.000;2023-05-20T04:36:19;0.70;;;0.55;;
35977;SDS011;22056;0.000;0.000;2023-05-20T04:38:46;1.33;;;0.40;;
35977;SDS011;22056;0.000;0.000;2023-05-20T04:41:12;0.52;;;0.50;;
35977;SDS011;22056;0.000;0.000;2023-05-20T04:43:40;0.60;;;0.50;;
35977;SDS011;22056;0.000;0.000;2023-05-20T04:46:06;1.10;;;0.47;;
35977;SDS011;22056;0.000;0.000;2023-05-20T04:48:33;0.40;;;0.40;;
35977;SDS011;22056;0.000;0.000;2023-05-20T04:50:59;0.60;;;0.40;;
35977;SDS011;22056;0.000;0.000;2023-05-20T04:53:26;0.50;;;0.50;;
35977;SDS011;22056;0.000;0.000;2023-05-20T04:55:54;0.50;;;0.30;;
35977;SDS011;22056;0.000;0.000;2023-05-20T04:58:21;0.40;;;0.40;;
35977;SDS011;22056;0.000;0.000;2023-05-20T05:00:48;0.40;;;0.40;;
35977;SDS011;22056;0.000;0.000;2023-05-20T05:03:15;0.43;;;0.40;;
35977;SDS011;22056;0.000;0.000;2023-05-20T05:05:42;0.52;;;0.40;;
35977;SDS011;22056;0.000;0.000;2023-05-20T05:08:08;0.35;;;0.30;;
35977;SDS011;22056;0.000;0.000;2023-05-20T05:10:37;0.40;;;0.40;;
35977;SDS011;22056;0.000;0.000;2023-05-20T05:13:04;0.52;;;0.30;;
35977;SDS011;22056;0.000;0.000;2023-05-20T05:15:30;0.50;;;0.50;;
35977;SDS011;22056;0.000;0.000;2023-05-20T05:17:56;0.57;;;0.57;;
35977;SDS011;22056;0.000;0.000;2023-05-20T05:20:22;0.60;;;0.40;;
35977;SDS011;22056;0.000;0.000;2023-05-20T05:22:49;0.80;;;0.50;;
35977;SDS011;22056;0.000;0.000;2023-05-20T05:25:15;1.02;;;0.75;;
35977;SDS011;22056;0.000;0.000;2023-05-20T05:27:41;0.85;;;0.50;;
35977;SDS011;22056;0.000;0.000;2023-05-20T05:30:08;0.50;;;0.50;;
35977;SDS011;22056;0.000;0.000;2023-05-20T05:32:35;0.30;;;0.30;;
35977;SDS011;22056;0.000;0.000;2023-05-20T05:35:02;0.65;;;0.50;;
35977;SDS011;22056;0.000;0.000;2023-05-20T05:37:28;0.68;;;0.40;;
35977;SDS011;22056;0.000;0.000;2023-05-20T05:39:54;0.38;;;0.38;;
35977;SDS011;22056;0.000;0.000;2023-05-20T05:42:21;0.60;;;0.40;;
35977;SDS011;22056;0.000;0.000;2023-05-20T05:44:47;0.40;;;0.40;;
35977;SDS011;22056;0.000;0.000;2023-05-20T05:47:13;0.40;;;0.40;;
35977;SDS011;22056;0.000;0.000;2023-05-20T05:49:39;0.40;;;0.40;;
35977;SDS011;22056;0.000;0.000;2023-05-20T05:52:05;0.82;;;0.40;;
35977;SDS011;22056;0.000;0.000;2023-05-20T05:54:31;0.43;;;0.40;;
35977;SDS011;22056;0.000;0.000;2023-05-20T05:56:58;0.40;;;0.40;;
35977;SDS011;22056;0.000;0.000;2023-05-20T05:59:24;0.40;;;0.40;;
35977;SDS011;22056;0.000;0.000;2023-05-20T06:01:50;0.40;;;0.40;;
35977;SDS011;22056;0.000;0.000;2023-05-20T06:04:16;0.40;;;0.40;;
35977;SDS011;22056;0.000;0.000;2023-05-20T06:06:42;0.45;;;0.43;;
35977;SDS011;22056;0.000;0.000;2023-05-20T06:09:08;0.47;;;0.47;;
35977;SDS011;22056;0.000;0.000;2023-05-20T06:11:35;0.40;;;0.40;;
35977;SDS011;22056;0.000;0.000;2023-05-20T06:14:01;0.93;;;0.38;;
35977;SDS011;22056;0.000;0.000;2023-05-20T06:16:27;0.43;;;0.32;;
35977;SDS011;22056;0.000;0.000;2023-05-20T06:18:53;0.40;;;0.40;;
35977;SDS011;22056;0.000;0.000;2023-05-20T06:21:21;0.30;;;0.30;;
35977;SDS011;22056;0.000;0.000;2023-05-20T06:23:48;0.30;;;0.30;;
35977;SDS011;22056;0.000;0.000;2023-05-20T06:26:14;0.50;;;0.50;;
35977;SDS011;22056;0.000;0.000;2023-05-20T06:28:40;0.40;;;0.40;;
35977;SDS011;22056;0.000;0.000;2023-05-20T06:31:06;0.30;;;0.30;;
35977;SDS011;22056;0.000;0.000;2023-05-20T06:33:33;0.68;;;0.50;;
35977;SDS011;22056;0.000;0.000;2023-05-20T06:35:59;0.40;;;0.40;;
35977;SDS011;22056;0.000;0.000;2023-05-20T06:38:26;0.30;;;0.30;;
35977;SDS011;22056;0.000;0.000;2023-05-20T06:40:52;0.30;;;0.30;;
35977;SDS011;22056;0.000;0.000;2023-05-20T06:43:18;0.40;;;0.40;;
35977;SDS011;22056;0.000;0.000;2023-05-20T06:45:44;0.38;;;0.38;;
35977;SDS011;22056;0.000;0.000;2023-05-20T06:48:11;0.45;;;0.38;;
35977;SDS011;22056;0.000;0.000;2023-05-20T06:50:37;0.40;;;0.40;;
35977;SDS011;22056;0.000;0.000;2023-05-20T06:53:03;0.32;;;0.32;;
35977;SDS011;22056;0.000;0.000;2023-05-20T06:55:29;0.73;;;0.30;;
35977;SDS011;22056;0.000;0.000;2023-05-20T06:57:55;0.40;;;0.40;;
35977;SDS011;22056;0.000;0.000;2023-05-20T07:00:21;0.30;;;0.30;;
35977;SDS011;22056;0.000;0.000;2023-05-20T07:02:47;0.40;;;0.40;;
35977;SDS011;22056;0.000;0.000;2023-05-20T07:05:14;0.43;;;0.38;;
35977;SDS011;22056;0.000;0.000;2023-05-20T07:07:40;0.50;;;0.38;;
35977;SDS011;22056;0.000;0.000;2023-05-20T07:10:06;0.32;;;0.30;;
35977;SDS011;22056;0.000;0.000;2023-05-20T07:12:32;0.47;;;0.40;;
35977;SDS011;22056;0.000;0.000;2023-05-20T07:14:59;0.43;;;0.40;;
35977;SDS011;22056;0.000;0.000;2023-05-20T07:17:25;0.30;;;0.30;;
35977;SDS011;22056;0.000;0.000;2023-05-20T07:19:53;0.30;;;0.30;;
35977;SDS011;22056;0.000;0.000;2023-05-20T07:22:20;0.50;;;0.40;;
35977;SDS011;22056;0.000;0.000;2023-05-20T07:24:46;0.30;;;0.30;;
35977;SDS011;22056;0.000;0.000;2023-05-20T07:27:12;0.50;;;0.50;;
35977;SDS011;22056;0.000;0.000;2023-05-20T07:29:39;0.55;;;0.38;;
35977;SDS011;22056;0.000;0.000;2023-05-20T07:32:05;0.40;;;0.40;;
35977;SDS011;22056;0.000;0.000;2023-05-20T07:34:31;0.40;;;0.40;;
35977;SDS011;22056;0.000;0.000;2023-05-20T07:36:57;0.40;;;0.40;;
35977;SDS011;22056;0.000;0.000;2023-05-20T07:39:24;0.50;;;0.50;;
35977;SDS011;22056;0.000;0.000;2023-05-20T07:41:50;0.30;;;0.30;;
35977;SDS011;22056;0.000;0.000;2023-05-20T07:44:16;0.30;;;0.30;;
35977;SDS011;22056;0.000;0.000;2023-05-20T07:46:46;0.88;;;0.50;;
35977;SDS011;22056;0.000;0.000;2023-05-20T07:49:13;0.40;;;0.40;;
35977;SDS011;22056;0.000;0.000;2023-05-20T07:51:39;0.40;;;0.40;;
35977;SDS011;22056;0.000;0.000;2023-05-20T07:54:05;0.32;;;0.32;;
35977;SDS011;22056;0.000;0.000;2023-05-20T07:56:31;0.30;;;0.30;;
35977;SDS011;22056;0.000;0.000;2023-05-20T07:58:58;0.30;;;0.30;;
35977;SDS011;22056;0.000;0.000;2023-05-20T08:01:25;0.55;;;0.30;;
35977;SDS011;22056;0.000;0.000;2023-05-20T08:03:51;0.30;;;0.30;;
35977;SDS011;22056;0.000;0.000;2023-05-20T08:06:17;0.30;;;0.30;;
35977;SDS011;22056;0.000;0.000;2023-05-20T08:08:48;0.30;;;0.30;;
35977;SDS011;22056;0.000;0.000;2023-05-20T08:11:14;0.30;;;0.30;;
35977;SDS011;22056;0.000;0.000;2023-05-20T08:13:40;0.50;;;0.30;;
35977;SDS011;22056;0.000;0.000;2023-05-20T08:16:06;0.30;;;0.30;;
35977;SDS011;22056;0.000;0.000;2023-05-20T08:18:33;0.35;;;0.35;;
35977;SDS011;22056;0.000;0.000;2023-05-20T08:21:01;0.25;;;0.25;;
35977;SDS011;22056;0.000;0.000;2023-05-20T08:23:28;0.30;;;0.30;;
35977;SDS011;22056;0.000;0.000;2023-05-20T08:25:54;0.35;;;0.35;;
35977;SDS011;22056;0.000;0.000;2023-05-20T08:28:21;0.40;;;0.40;;
35977;SDS011;22056;0.000;0.000;2023-05-20T08:30:47;0.30;;;0.30;;
35977;SDS011;22056;0.000;0.000;2023-05-20T08:33:14;0.30;;;0.30;;
35977;SDS011;22056;0.000;0.000;2023-05-20T08:35:40;0.30;;;0.30;;
35977;SDS011;22056;0.000;0.000;2023-05-20T08:38:06;0.30;;;0.30;;
35977;SDS011;22056;0.000;0.000;2023-05-20T08:40:35;0.30;;;0.30;;
35977;SDS011;22056;0.000;0.000;2023-05-20T08:43:01;0.30;;;0.30;;
35977;SDS011;22056;0.000;0.000;2023-05-20T08:45:29;0.28;;;0.28;;
35977;SDS011;22056;0.000;0.000;2023-05-20T08:47:56;0.35;;;0.35;;
35977;SDS011;22056;0.000;0.000;2023-05-20T08:50:22;0.30;;;0.30;;
35977;SDS011;22056;0.000;0.000;2023-05-20T08:52:48;0.30;;;0.30;;
35977;SDS011;22056;0.000;0.000;2023-05-20T08:55:18;0.30;;;0.30;;
35977;SDS011;22056;0.000;0.000;2023-05-20T08:57:49;0.40;;;0.30;;
35977;SDS011;22056;0.000;0.000;2023-05-20T09:00:15;0.30;;;0.30;;
35977;SDS011;22056;0.000;0.000;2023-05-20T09:02:44;0.35;;;0.35;;
35977;SDS011;22056;0.000;0.000;2023-05-20T09:05:10;0.35;;;0.35;;
35977;SDS011;22056;0.000;0.000;2023-05-20T09:07:36;0.30;;;0.30;;
35977;SDS011;22056;0.000;0.000;2023-05-20T09:10:03;0.30;;;0.30;;
35977;SDS011;22056;0.000;0.000;2023-05-20T09:12:30;0.30;;;0.30;;
35977;SDS011;22056;0.000;0.000;2023-05-20T09:14:56;0.50;;;0.30;;
35977;SDS011;22056;0.000;0.000;2023-05-20T09:17:22;0.30;;;0.30;;
35977;SDS011;22056;0.000;0.000;2023-05-20T09:19:49;0.32;;;0.32;;
35977;SDS011;22056;0.000;0.000;2023-05-20T09:22:27;0.30;;;0.30;;
35977;SDS011;22056;0.000;0.000;2023-05-20T09:24:54;0.40;;;0.40;;
35977;SDS011;22056;0.000;0.000;2023-05-20T09:27:20;0.40;;;0.40;;
35977;SDS011;22056;0.000;0.000;2023-05-20T09:29:48;0.40;;;0.32;;
35977;SDS011;22056;0.000;0.000;2023-05-20T09:32:14;0.50;;;0.40;;
35977;SDS011;22056;0.000;0.000;2023-05-20T09:34:41;0.40;;;0.40;;
35977;SDS011;22056;0.000;0.000;2023-05-20T09:37:09;0.40;;;0.40;;
35977;SDS011;22056;0.000;0.000;2023-05-20T09:39:38;0.30;;;0.30;;
35977;SDS011;22056;0.000;0.000;2023-05-20T09:42:22;0.40;;;0.40;;
35977;SDS011;22056;0.000;0.000;2023-05-20T09:44:51;0.30;;;0.30;;
35977;SDS011;22056;0.000;0.000;2023-05-20T09:47:22;0.30;;;0.30;;
35977;SDS011;22056;0.000;0.000;2023-05-20T09:49:50;0.32;;;0.32;;
35977;SDS011;22056;0.000;0.000;2023-05-20T09:52:17;0.30;;;0.30;;
35977;SDS011;22056;0.000;0.000;2023-05-20T09:54:44;0.30;;;0.30;;
35977;SDS011;22056;0.000;0.000;2023-05-20T09:57:11;0.32;;;0.32;;
35977;SDS011;22056;0.000;0.000;2023-05-20T09:59:38;0.30;;;0.30;;
35977;SDS011;22056;0.000;0.000;2023-05-20T10:02:05;0.32;;;0.32;;
35977;SDS011;22056;0.000;0.000;2023-05-20T10:04:32;0.30;;;0.30;;
35977;SDS011;22056;0.000;0.000;2023-05-20T10:07:08;0.30;;;0.30;;
35977;SDS011;22056;0.000;0.000;2023-05-20T10:09:58;0.30;;;0.30;;
35977;SDS011;22056;0.000;0.000;2023-05-20T10:12:32;0.40;;;0.40;;
35977;SDS011;22056;0.000;0.000;2023-05-20T10:20:14;0.30;;;0.30;;
35977;SDS011;22056;0.000;0.000;2023-05-20T10:22:40;0.30;;;0.30;;
35977;SDS011;22056;0.000;0.000;2023-05-20T10:25:10;0.30;;;0.30;;
35977;SDS011;22056;0.000;0.000;2023-05-20T10:27:46;0.30;;;0.30;;
35977;SDS011;22056;0.000;0.000;2023-05-20T10:30:19;0.30;;;0.28;;
35977;SDS011;22056;0.000;0.000;2023-05-20T10:32:52;0.40;;;0.30;;
35977;SDS011;22056;0.000;0.000;2023-05-20T10:35:23;0.30;;;0.30;;
35977;SDS011;22056;0.000;0.000;2023-05-20T10:37:53;0.30;;;0.30;;
35977;SDS011;22056;0.000;0.000;2023-05-20T10:40:21;0.32;;;0.32;;
35977;SDS011;22056;0.000;0.000;2023-05-20T10:42:47;0.30;;;0.30;;
35977;SDS011;22056;0.000;0.000;2023-05-20T10:45:26;0.30;;;0.30;;
35977;SDS011;22056;0.000;0.000;2023-05-20T10:47:54;0.30;;;0.30;;
35977;SDS011;22056;0.000;0.000;2023-05-20T10:50:35;0.30;;;0.30;;
35977;SDS011;22056;0.000;0.000;2023-05-20T10:53:06;0.40;;;0.40;;
35977;SDS011;22056;0.000;0.000;2023-05-20T10:55:36;0.30;;;0.30;;
35977;SDS011;22056;0.000;0.000;2023-05-20T10:58:02;0.30;;;0.30;;
35977;SDS011;22056;0.000;0.000;2023-05-20T11:00:29;0.20;;;0.20;;
35977;SDS011;22056;0.000;0.000;2023-05-20T11:02:55;0.30;;;0.30;;
35977;SDS011;22056;0.000;0.000;2023-05-20T11:05:22;0.30;;;0.30;;
35977;SDS011;22056;0.000;0.000;2023-05-20T11:07:48;0.30;;;0.30;;
35977;SDS011;22056;0.000;0.000;2023-05-20T11:10:15;0.30;;;0.30;;
35977;SDS011;22056;0.000;0.000;2023-05-20T11:12:41;0.30;;;0.30;;
35977;SDS011;22056;0.000;0.000;2023-05-20T11:15:10;0.35;;;0.35;;
35977;SDS011;22056;0.000;0.000;2023-05-20T11:17:37;0.35;;;0.35;;
35977;SDS011;22056;0.000;0.000;2023-05-20T11:20:03;0.30;;;0.28;;
35977;SDS011;22056;0.000;0.000;2023-05-20T11:22:29;0.20;;;0.20;;
35977;SDS011;22056;0.000;0.000;2023-05-20T11:24:55;0.30;;;0.30;;
35977;SDS011;22056;0.000;0.000;2023-05-20T11:27:21;0.30;;;0.30;;
35977;SDS011;22056;0.000;0.000;2023-05-20T11:29:48;0.25;;;0.25;;
35977;SDS011;22056;0.000;0.000;2023-05-20T11:32:15;0.25;;;0.25;;
35977;SDS011;22056;0.000;0.000;2023-05-20T11:34:44;0.28;;;0.28;;
35977;SDS011;22056;0.000;0.000;2023-05-20T11:37:10;0.20;;;0.20;;
35977;SDS011;22056;0.000;0.000;2023-05-20T11:39:36;0.30;;;0.30;;
35977;SDS011;22056;0.000;0.000;2023-05-20T11:42:03;0.20;;;0.20;;
35977;SDS011;22056;0.000;0.000;2023-05-20T11:44:30;0.30;;;0.30;;
35977;SDS011;22056;0.000;0.000;2023-05-20T11:47:00;0.20;;;0.20;;
35977;SDS011;22056;0.000;0.000;2023-05-20T11:49:26;0.30;;;0.30;;
35977;SDS011;22056;0.000;0.000;2023-05-20T11:51:52;0.30;;;0.20;;
35977;SDS011;22056;0.000;0.000;2023-05-20T11:54:18;0.20;;;0.20;;
35977;SDS011;22056;0.000;0.000;2023-05-20T11:56:47;0.20;;;0.20;;
35977;SDS011;22056;0.000;0.000;2023-05-20T11:59:13;0.20;;;0.20;;
35977;SDS011;22056;0.000;0.000;2023-05-20T12:01:39;0.22;;;0.22;;
35977;SDS011;22056;0.000;0.000;2023-05-20T12:04:06;0.20;;;0.20;;
35977;SDS011;22056;0.000;0.000;2023-05-20T12:06:32;0.30;;;0.30;;
35977;SDS011;22056;0.000;0.000;2023-05-20T12:09:00;0.20;;;0.20;;
35977;SDS011;22056;0.000;0.000;2023-05-20T12:11:33;0.25;;;0.25;;
35977;SDS011;22056;0.000;0.000;2023-05-20T12:14:00;0.20;;;0.20;;
35977;SDS011;22056;0.000;0.000;2023-05-20T12:16:26;0.30;;;0.30;;
35977;SDS011;22056;0.000;0.000;2023-05-20T12:18:53;0.30;;;0.30;;
35977;SDS011;22056;0.000;0.000;2023-05-20T12:21:19;0.20;;;0.20;;
35977;SDS011;22056;0.000;0.000;2023-05-20T12:23:45;0.20;;;0.20;;
35977;SDS011;22056;0.000;0.000;2023-05-20T12:26:11;0.20;;;0.20;;
35977;SDS011;22056;0.000;0.000;2023-05-20T12:28:37;0.30;;;0.30;;
35977;SDS011;22056;0.000;0.000;2023-05-20T12:31:04;0.20;;;0.20;;
35977;SDS011;22056;0.000;0.000;2023-05-20T12:33:30;0.30;;;0.30;;
35977;SDS011;22056;0.000;0.000;2023-05-20T12:35:56;0.20;;;0.20;;
35977;SDS011;22056;0.000;0.000;2023-05-20T12:38:23;0.20;;;0.20;;
35977;SDS011;22056;0.000;0.000;2023-05-20T12:40:49;0.25;;;0.25;;
35977;SDS011;22056;0.000;0.000;2023-05-20T12:43:15;0.30;;;0.22;;
35977;SDS011;22056;0.000;0.000;2023-05-20T12:45:41;0.22;;;0.22;;
35977;SDS011;22056;0.000;0.000;2023-05-20T12:48:07;0.22;;;0.22;;
35977;SDS011;22056;0.000;0.000;2023-05-20T12:50:33;0.30;;;0.30;;
35977;SDS011;22056;0.000;0.000;2023-05-20T12:52:59;0.20;;;0.20;;
35977;SDS011;22056;0.000;0.000;2023-05-20T12:55:25;0.20;;;0.20;;
35977;SDS011;22056;0.000;0.000;2023-05-20T12:57:52;0.43;;;0.35;;
35977;SDS011;22056;0.000;0.000;2023-05-20T13:00:20;0.20;;;0.20;;
35977;SDS011;22056;0.000;0.000;2023-05-20T13:02:46;0.20;;;0.20;;
35977;SDS011;22056;0.000;0.000;2023-05-20T13:05:12;0.30;;;0.20;;
35977;SDS011;22056;0.000;0.000;2023-05-20T13:07:39;0.30;;;0.30;;
35977;SDS011;22056;0.000;0.000;2023-05-20T13:10:05;0.20;;;0.20;;
35977;SDS011;22056;0.000;0.000;2023-05-20T13:12:32;0.20;;;0.20;;
35977;SDS011;22056;0.000;0.000;2023-05-20T13:14:58;0.15;;;0.15;;
35977;SDS011;22056;0.000;0.000;2023-05-20T13:17:25;0.20;;;0.20;;
35977;SDS011;22056;0.000;0.000;2023-05-20T13:19:51;0.22;;;0.22;;
35977;SDS011;22056;0.000;0.000;2023-05-20T13:22:17;0.20;;;0.20;;
35977;SDS011;22056;0.000;0.000;2023-05-20T13:24:43;0.20;;;0.20;;
35977;SDS011;22056;0.000;0.000;2023-05-20T13:27:09;0.20;;;0.20;;
35977;SDS011;22056;0.000;0.000;2023-05-20T13:29:35;0.20;;;0.20;;
35977;SDS011;22056;0.000;0.000;2023-05-20T13:32:02;0.30;;;0.30;;
35977;SDS011;22056;0.000;0.000;2023-05-20T13:34:28;0.20;;;0.20;;
35977;SDS011;22056;0.000;0.000;2023-05-20T13:36:55;0.20;;;0.20;;
35977;SDS011;22056;0.000;0.000;2023-05-20T13:39:21;0.20;;;0.20;;
35977;SDS011;22056;0.000;0.000;2023-05-20T13:41:47;0.20;;;0.20;;
35977;SDS011;22056;0.000;0.000;2023-05-20T13:44:14;0.20;;;0.20;;
35977;SDS011;22056;0.000;0.000;2023-05-20T13:46:40;0.22;;;0.22;;
35977;SDS011;22056;0.000;0.000;2023-05-20T13:49:06;0.20;;;0.20;;
35977;SDS011;22056;0.000;0.000;2023-05-20T13:51:32;0.25;;;0.25;;
35977;SDS011;22056;0.000;0.000;2023-05-20T13:53:58;0.20;;;0.20;;
35977;SDS011;22056;0.000;0.000;2023-05-20T13:56:24;0.20;;;0.20;;
35977;SDS011;22056;0.000;0.000;2023-05-20T13:58:51;0.30;;;0.30;;
35977;SDS011;22056;0.000;0.000;2023-05-20T14:01:17;0.20;;;0.20;;
35977;SDS011;22056;0.000;0.000;2023-05-20T14:03:43;0.20;;;0.20;;
35977;SDS011;22056;0.000;0.000;2023-05-20T14:06:09;0.17;;;0.17;;
35977;SDS011;22056;0.000;0.000;2023-05-20T14:08:35;0.20;;;0.20;;
35977;SDS011;22056;0.000;0.000;2023-05-20T14:11:01;0.20;;;0.20;;
35977;SDS011;22056;0.000;0.000;2023-05-20T14:13:29;0.20;;;0.20;;
35977;SDS011;22056;0.000;0.000;2023-05-20T14:15:55;0.20;;;0.20;;
35977;SDS011;22056;0.000;0.000;2023-05-20T14:18:21;0.40;;;0.20;;
35977;SDS011;22056;0.000;0.000;2023-05-20T14:20:47;0.10;;;0.10;;
35977;SDS011;22056;0.000;0.000;2023-05-20T14:23:13;0.20;;;0.20;;
35977;SDS011;22056;0.000;0.000;2023-05-20T14:25:39;0.17;;;0.17;;
35977;SDS011;22056;0.000;0.000;2023-05-20T14:28:06;0.77;;;0.20;;
35977;SDS011;22056;0.000;0.000;2023-05-20T14:30:32;0.10;;;0.10;;
35977;SDS011;22056;0.000;0.000;2023-05-20T14:32:58;0.10;;;0.10;;
35977;SDS011;22056;0.000;0.000;2023-05-20T14:35:24;0.20;;;0.20;;
35977;SDS011;22056;0.000;0.000;2023-05-20T14:37:51;0.20;;;0.20;;
35977;SDS011;22056;0.000;0.000;2023-05-20T14:40:17;0.20;;;0.20;;
35977;SDS011;22056;0.000;0.000;2023-05-20T14:42:43;0.20;;;0.20;;
35977;SDS011;22056;0.000;0.000;2023-05-20T14:45:09;0.20;;;0.20;;
35977;SDS011;22056;0.000;0.000;2023-05-20T14:47:35;0.10;;;0.10;;
35977;SDS011;22056;0.000;0.000;2023-05-20T14:50:04;0.20;;;0.20;;
35977;SDS011;22056;0.000;0.000;2023-05-20T14:52:30;0.32;;;0.20;;
35977;SDS011;22056;0.000;0.000;2023-05-20T14:54:56;0.20;;;0.20;;
35977;SDS011;22056;0.000;0.000;2023-05-20T14:57:22;0.25;;;0.25;;
35977;SDS011;22056;0.000;0.000;2023-05-20T14:59:49;0.20;;;0.20;;
35977;SDS011;22056;0.000;0.000;2023-05-20T15:02:16;0.20;;;0.20;;
35977;SDS011;22056;0.000;0.000;2023-05-20T15:04:43;0.20;;;0.20;;